Time;durP1;ratioP1;P1;durP2;ratioP2;P2;SDS_P1;SDS_P2;PMS_P1;PMS_P2;Temp;Humidity;BMP_temperature;BMP_pressure;BME280_temperature;BME280_humidity;BME280_pressure;Samples;Min_cycle;Max_cycle;Signal;HPM_P1;HPM_P2
2023/05/16 00:00:57;;;;;;;7.65;2.85;;;;;;;;;;5000581;28;20371;-71
2023/05/16 00:03:23;;;;;;;8.25;3.22;;;;;;;;;;4990147;28;21005;-71
2023/05/16 00:05:49;;;;;;;11.10;4.55;;;;;;;;;;4987112;28;20029;-73
2023/05/16 00:08:15;;;;;;;;;;;;;;;;;;4994921;28;20084;-71
2023/05/16 00:10:42;;;;;;;9.80;3.50;;;;;;;;;;4988496;28;19919;-71
2023/05/16 00:13:09;;;;;;;9.88;3.28;;;;;;;;;;4989102;28;20038;-73
2023/05/16 00:15:37;;;;;;;8.30;2.97;;;;;;;;;;4991038;28;20021;-73
2023/05/16 00:18:03;;;;;;;6.97;2.80;;;;;;;;;;4993345;28;20430;-72
2023/05/16 00:20:30;;;;;;;7.43;2.90;;;;;;;;;;4998166;28;20450;-71
2023/05/16 00:22:59;;;;;;;7.57;3.30;;;;;;;;;;4996041;28;20383;-72
2023/05/16 00:25:26;;;;;;;7.88;2.80;;;;;;;;;;4997759;28;20059;-71
2023/05/16 00:27:52;;;;;;;8.13;2.97;;;;;;;;;;4998242;28;20393;-71
2023/05/16 00:30:18;;;;;;;;;;;;;;;;;;4998324;28;20931;-71
2023/05/16 00:32:44;;;;;;;7.78;2.95;;;;;;;;;;4996566;28;19917;-71
2023/05/16 00:35:11;;;;;;;8.00;2.92;;;;;;;;;;4996848;28;20044;-71
2023/05/16 00:37:37;;;;;;;7.30;2.85;;;;;;;;;;4995411;28;20393;-71
2023/05/16 00:40:04;;;;;;;8.07;3.03;;;;;;;;;;4994872;28;20037;-71
2023/05/16 00:42:30;;;;;;;8.25;3.42;;;;;;;;;;4997052;28;20037;-71
2023/05/16 00:44:56;;;;;;;6.90;2.53;;;;;;;;;;4998379;28;20056;-71
2023/05/16 00:47:23;;;;;;;7.20;2.80;;;;;;;;;;5000173;28;20509;-72
2023/05/16 00:49:48;;;;;;;;;;;;;;;;;;4998651;28;20084;-71
2023/05/16 00:52:15;;;;;;;6.82;2.72;;;;;;;;;;4996327;28;20529;-70
2023/05/16 00:54:41;;;;;;;7.55;2.85;;;;;;;;;;4998504;28;20038;-72
2023/05/16 00:57:07;;;;;;;;;;;;;;;;;;4997037;28;20596;-72
2023/05/16 00:59:34;;;;;;;7.18;2.83;;;;;;;;;;5001029;28;19920;-73
2023/05/16 01:02:00;;;;;;;7.82;2.92;;;;;;;;;;4995932;28;20448;-72
2023/05/16 01:04:27;;;;;;;8.57;2.80;;;;;;;;;;4996641;28;20059;-71
2023/05/16 01:06:54;;;;;;;7.65;3.00;;;;;;;;;;4995146;28;20033;-71
2023/05/16 01:09:20;;;;;;;8.82;2.58;;;;;;;;;;4998299;28;20111;-71
2023/05/16 01:11:51;;;;;;;6.50;2.40;;;;;;;;;;4994130;28;20037;-71
2023/05/16 01:14:31;;;;;;;9.00;2.90;;;;;;;;;;4997316;28;20035;-71
2023/05/16 01:17:10;;;;;;;9.00;2.90;;;;;;;;;;4992073;28;20163;-71
2023/05/16 01:19:39;;;;;;;11.02;3.67;;;;;;;;;;5000134;28;20343;-71
2023/05/16 01:22:15;;;;;;;8.10;3.05;;;;;;;;;;4995061;28;20502;-72
2023/05/16 01:24:54;;;;;;;9.25;3.00;;;;;;;;;;4996064;28;20430;-71
2023/05/16 01:27:21;;;;;;;8.63;2.92;;;;;;;;;;4995151;28;20239;-71
2023/05/16 01:29:47;;;;;;;7.18;2.70;;;;;;;;;;4993429;28;20554;-71
2023/05/16 01:32:13;;;;;;;;;;;;;;;;;;4998626;28;20033;-71
2023/05/16 01:34:40;;;;;;;8.50;2.78;;;;;;;;;;4992861;28;19924;-71
2023/05/16 01:37:14;;;;;;;8.68;2.97;;;;;;;;;;4993349;28;20022;-71
2023/05/16 01:39:57;;;;;;;7.60;2.72;;;;;;;;;;5023407;28;20029;-72
2023/05/16 01:42:25;;;;;;;7.82;2.55;;;;;;;;;;4991148;28;20025;-71
2023/05/16 01:45:03;;;;;;;7.85;2.50;;;;;;;;;;4992169;28;20353;-71
2023/05/16 01:47:32;;;;;;;8.98;2.97;;;;;;;;;;4996577;28;20030;-73
2023/05/16 01:50:02;;;;;;;6.68;3.00;;;;;;;;;;4995933;28;20064;-71
2023/05/16 01:52:33;;;;;;;9.35;3.33;;;;;;;;;;4996488;28;20357;-73
2023/05/16 01:55:00;;;;;;;9.40;2.97;;;;;;;;;;4993714;28;20084;-72
2023/05/16 01:57:27;;;;;;;7.68;3.05;;;;;;;;;;4995424;28;20033;-72
2023/05/16 01:59:53;;;;;;;9.05;3.28;;;;;;;;;;4996949;28;20034;-73
2023/05/16 02:02:20;;;;;;;9.57;3.38;;;;;;;;;;4997210;28;20535;-73
2023/05/16 02:04:46;;;;;;;9.48;3.33;;;;;;;;;;4995660;28;20042;-73
2023/05/16 02:07:15;;;;;;;7.70;2.90;;;;;;;;;;4997279;28;20466;-73
2023/05/16 02:09:41;;;;;;;9.63;3.40;;;;;;;;;;4997176;28;20348;-72
2023/05/16 02:12:07;;;;;;;;;;;;;;;;;;4992572;28;20033;-73
2023/05/16 02:14:34;;;;;;;10.50;3.60;;;;;;;;;;4996548;28;20309;-71
2023/05/16 02:17:00;;;;;;;7.75;3.58;;;;;;;;;;4989822;28;20064;-72
2023/05/16 02:19:26;;;;;;;;;;;;;;;;;;4995356;28;20109;-71
2023/05/16 02:21:52;;;;;;;8.13;2.83;;;;;;;;;;5008290;28;20398;-71
2023/05/16 02:24:18;;;;;;;;;;;;;;;;;;4998104;28;20029;-71
2023/05/16 02:26:44;;;;;;;8.45;3.00;;;;;;;;;;4992792;28;20336;-71
2023/05/16 02:29:10;;;;;;;6.82;2.80;;;;;;;;;;4996926;28;20490;-71
2023/05/16 02:31:36;;;;;;;;;;;;;;;;;;4997057;28;20207;-72
2023/05/16 02:34:02;;;;;;;9.68;3.00;;;;;;;;;;4993882;28;20327;-71
2023/05/16 02:36:29;;;;;;;9.18;3.10;;;;;;;;;;5000873;28;20025;-71
2023/05/16 02:38:55;;;;;;;8.73;3.20;;;;;;;;;;5000163;28;20037;-71
2023/05/16 02:41:22;;;;;;;;;;;;;;;;;;5004114;28;20029;-71
2023/05/16 02:43:48;;;;;;;8.70;3.20;;;;;;;;;;4997248;28;20012;-71
2023/05/16 02:46:40;;;;;;;7.97;3.05;;;;;;;;;;5000908;28;20037;-72
2023/05/16 02:49:07;;;;;;;9.30;3.15;;;;;;;;;;4996273;28;20041;-71
2023/05/16 02:51:32;;;;;;;;;;;;;;;;;;5002460;28;20190;-71
2023/05/16 02:53:59;;;;;;;10.18;3.30;;;;;;;;;;4997693;28;19925;-70
2023/05/16 02:56:26;;;;;;;7.47;2.90;;;;;;;;;;5002140;28;20037;-71
2023/05/16 02:58:53;;;;;;;8.45;3.10;;;;;;;;;;4998457;28;20029;-71
2023/05/16 03:01:19;;;;;;;10.57;3.50;;;;;;;;;;5003073;28;20051;-73
2023/05/16 03:03:45;;;;;;;7.00;2.95;;;;;;;;;;4995517;28;20049;-71
2023/05/16 03:06:12;;;;;;;;;;;;;;;;;;5003146;28;20450;-73
2023/05/16 03:08:38;;;;;;;8.75;3.20;;;;;;;;;;5003829;28;19939;-75
2023/05/16 03:11:04;;;;;;;;;;;;;;;;;;4999101;28;20034;-70
2023/05/16 03:13:30;;;;;;;8.23;3.20;;;;;;;;;;5002402;28;19913;-71
2023/05/16 03:15:56;;;;;;;8.15;3.20;;;;;;;;;;4996268;28;20030;-71
2023/05/16 03:18:23;;;;;;;10.18;3.08;;;;;;;;;;5001280;28;20061;-71
2023/05/16 03:20:51;;;;;;;8.35;3.10;;;;;;;;;;4997748;28;20135;-71
2023/05/16 03:23:18;;;;;;;9.63;3.10;;;;;;;;;;5001511;28;20047;-71
2023/05/16 03:25:45;;;;;;;10.18;3.38;;;;;;;;;;4998642;28;20036;-72
2023/05/16 03:28:11;;;;;;;8.77;3.03;;;;;;;;;;4996899;28;20541;-71
2023/05/16 03:30:37;;;;;;;;;;;;;;;;;;5000269;28;20041;-71
2023/05/16 03:33:03;;;;;;;7.30;3.00;;;;;;;;;;4998720;28;22176;-71
2023/05/16 03:35:32;;;;;;;9.65;3.30;;;;;;;;;;4997534;28;20635;-72
2023/05/16 03:37:59;;;;;;;6.38;2.65;;;;;;;;;;4995462;28;20041;-71
2023/05/16 03:40:25;;;;;;;8.45;3.45;;;;;;;;;;5001001;28;20064;-71
2023/05/16 03:42:51;;;;;;;8.60;3.20;;;;;;;;;;4995329;28;20034;-72
2023/05/16 03:45:17;;;;;;;;;;;;;;;;;;5000673;28;20378;-71
2023/05/16 03:47:43;;;;;;;10.52;3.00;;;;;;;;;;4999623;28;19917;-71
2023/05/16 03:50:09;;;;;;;8.55;2.47;;;;;;;;;;4995978;28;20039;-71
2023/05/16 03:52:36;;;;;;;8.73;3.17;;;;;;;;;;4999533;28;20476;-71
2023/05/16 03:55:03;;;;;;;8.50;2.78;;;;;;;;;;4994097;28;20160;-72
2023/05/16 03:57:32;;;;;;;10.45;3.20;;;;;;;;;;4997741;28;20018;-71
2023/05/16 03:59:58;;;;;;;8.65;3.13;;;;;;;;;;4995806;28;20040;-71
2023/05/16 04:02:25;;;;;;;10.15;3.00;;;;;;;;;;5000617;28;20080;-73
2023/05/16 04:04:51;;;;;;;8.35;2.45;;;;;;;;;;4995137;28;20033;-70
2023/05/16 04:07:17;;;;;;;10.15;2.85;;;;;;;;;;4998331;28;20029;-73
2023/05/16 04:09:44;;;;;;;7.10;2.78;;;;;;;;;;4995631;28;20420;-73
2023/05/16 04:12:10;;;;;;;8.18;2.30;;;;;;;;;;4999123;28;20053;-71
2023/05/16 04:14:36;;;;;;;;;;;;;;;;;;4997714;28;20365;-73
2023/05/16 04:17:02;;;;;;;8.77;2.97;;;;;;;;;;4995376;28;20423;-73
2023/05/16 04:19:28;;;;;;;9.07;2.60;;;;;;;;;;5002789;28;20028;-73
2023/05/16 04:21:54;;;;;;;8.07;2.60;;;;;;;;;;4996250;28;20032;-72
2023/05/16 04:24:25;;;;;;;7.57;2.45;;;;;;;;;;4998086;28;20900;-73
2023/05/16 04:26:51;;;;;;;10.20;2.67;;;;;;;;;;4996120;28;20216;-71
2023/05/16 04:29:17;;;;;;;9.32;2.80;;;;;;;;;;4996608;28;20680;-71
2023/05/16 04:31:43;;;;;;;;;;;;;;;;;;4996819;28;20291;-71
2023/05/16 04:34:11;;;;;;;8.23;2.92;;;;;;;;;;4998621;28;19927;-72
2023/05/16 04:36:37;;;;;;;7.00;2.38;;;;;;;;;;4998813;28;20063;-71
2023/05/16 04:39:03;;;;;;;7.97;2.40;;;;;;;;;;4994010;28;20863;-71
2023/05/16 04:41:29;;;;;;;8.82;2.83;;;;;;;;;;4996901;28;20306;-71
2023/05/16 04:43:55;;;;;;;6.50;2.45;;;;;;;;;;4994124;28;20072;-71
2023/05/16 04:46:22;;;;;;;10.65;2.85;;;;;;;;;;4995412;28;20679;-71
2023/05/16 04:48:48;;;;;;;11.93;2.90;;;;;;;;;;4994724;28;20844;-71
2023/05/16 04:51:14;;;;;;;9.40;2.67;;;;;;;;;;4999148;28;20021;-71
2023/05/16 04:53:40;;;;;;;6.90;2.58;;;;;;;;;;4997613;28;20033;-71
2023/05/16 04:56:07;;;;;;;9.00;2.85;;;;;;;;;;4989810;28;20033;-74
2023/05/16 04:58:33;;;;;;;8.73;3.03;;;;;;;;;;4997618;28;20346;-71
2023/05/16 05:00:59;;;;;;;9.90;3.15;;;;;;;;;;4994857;28;20036;-71
2023/05/16 05:03:25;;;;;;;9.32;2.80;;;;;;;;;;4998209;28;20608;-72
2023/05/16 05:05:51;;;;;;;6.22;1.95;;;;;;;;;;4996790;28;20056;-71
2023/05/16 05:08:18;;;;;;;6.47;2.28;;;;;;;;;;4997030;28;20029;-71
2023/05/16 05:10:44;;;;;;;9.32;2.47;;;;;;;;;;4997556;28;20036;-71
2023/05/16 05:13:11;;;;;;;11.55;2.97;;;;;;;;;;4995823;28;20033;-71
2023/05/16 05:15:37;;;;;;;8.45;2.70;;;;;;;;;;4995819;28;20818;-72
2023/05/16 05:18:03;;;;;;;8.80;2.78;;;;;;;;;;4994820;28;20035;-71
2023/05/16 05:20:30;;;;;;;8.73;3.00;;;;;;;;;;4996078;28;20034;-71
2023/05/16 05:22:56;;;;;;;7.00;2.42;;;;;;;;;;4995044;28;20034;-71
2023/05/16 05:25:22;;;;;;;6.75;2.33;;;;;;;;;;4997958;28;20030;-72
2023/05/16 05:27:48;;;;;;;5.93;2.38;;;;;;;;;;4994245;28;20030;-71
2023/05/16 05:30:15;;;;;;;10.82;2.92;;;;;;;;;;4998382;28;20524;-72
2023/05/16 05:32:41;;;;;;;11.38;2.55;;;;;;;;;;4996800;28;20040;-72
2023/05/16 05:35:07;;;;;;;7.45;2.50;;;;;;;;;;4993473;28;20110;-71
2023/05/16 05:37:33;;;;;;;11.20;2.78;;;;;;;;;;4994329;28;20352;-72
2023/05/16 05:40:00;;;;;;;10.48;2.70;;;;;;;;;;4992332;28;20116;-72
2023/05/16 05:42:26;;;;;;;10.02;2.60;;;;;;;;;;4997083;28;20025;-71
2023/05/16 05:44:52;;;;;;;9.60;2.78;;;;;;;;;;4990966;28;20115;-71
2023/05/16 05:47:18;;;;;;;10.27;3.33;;;;;;;;;;5023442;28;20092;-73
2023/05/16 05:49:44;;;;;;;10.70;3.58;;;;;;;;;;4991330;28;20662;-71
2023/05/16 05:52:11;;;;;;;9.43;3.53;;;;;;;;;;4995115;28;20041;-71
2023/05/16 05:54:37;;;;;;;15.82;4.10;;;;;;;;;;4996168;28;20041;-72
2023/05/16 05:57:03;;;;;;;11.75;3.70;;;;;;;;;;4991890;28;21558;-71
2023/05/16 05:59:29;;;;;;;9.93;3.78;;;;;;;;;;5024330;28;20064;-71
2023/05/16 06:01:56;;;;;;;8.68;3.20;;;;;;;;;;4992416;28;20037;-71
2023/05/16 06:04:23;;;;;;;10.13;2.70;;;;;;;;;;4990404;28;20029;-71
2023/05/16 06:06:50;;;;;;;10.07;3.58;;;;;;;;;;4991457;28;20060;-71
2023/05/16 06:09:16;;;;;;;11.75;3.08;;;;;;;;;;4965316;28;20030;-71
2023/05/16 06:11:44;;;;;;;10.35;2.80;;;;;;;;;;4990957;28;20045;-72
2023/05/16 06:14:10;;;;;;;7.82;2.55;;;;;;;;;;4998440;28;20054;-71
2023/05/16 06:16:38;;;;;;;8.48;2.55;;;;;;;;;;5000901;28;20033;-71
2023/05/16 06:19:05;;;;;;;9.02;3.13;;;;;;;;;;4997407;28;20406;-72
2023/05/16 06:21:32;;;;;;;7.30;2.33;;;;;;;;;;4999118;28;20034;-73
2023/05/16 06:23:58;;;;;;;9.18;2.53;;;;;;;;;;4999960;28;20029;-72
2023/05/16 06:26:24;;;;;;;8.88;3.08;;;;;;;;;;5000958;28;20041;-72
2023/05/16 06:28:50;;;;;;;13.40;4.60;;;;;;;;;;4999734;28;20163;-72
2023/05/16 06:31:16;;;;;;;9.98;3.80;;;;;;;;;;5002170;28;20069;-72
2023/05/16 06:33:42;;;;;;;9.45;3.10;;;;;;;;;;4998500;28;20057;-71
2023/05/16 06:36:09;;;;;;;8.93;3.03;;;;;;;;;;4997451;28;20026;-72
2023/05/16 06:38:35;;;;;;;7.43;2.50;;;;;;;;;;5001660;28;20032;-71
2023/05/16 06:41:01;;;;;;;8.07;2.38;;;;;;;;;;4998222;28;20036;-72
2023/05/16 06:43:27;;;;;;;8.50;2.50;;;;;;;;;;5001344;28;20186;-71
2023/05/16 06:45:53;;;;;;;11.20;2.38;;;;;;;;;;4975038;28;20255;-71
2023/05/16 06:48:20;;;;;;;10.50;3.22;;;;;;;;;;4966735;28;20033;-71
2023/05/16 06:50:52;;;;;;;11.50;3.58;;;;;;;;;;4964200;28;20140;-72
2023/05/16 06:53:19;;;;;;;9.80;2.70;;;;;;;;;;4964248;28;20099;-71
2023/05/16 06:55:46;;;;;;;10.82;2.58;;;;;;;;;;4961378;28;20041;-71
2023/05/16 06:58:12;;;;;;;11.82;2.95;;;;;;;;;;4963392;28;20561;-71
2023/05/16 07:00:39;;;;;;;9.18;2.88;;;;;;;;;;4966670;28;20144;-71
2023/05/16 07:03:05;;;;;;;10.93;2.47;;;;;;;;;;4961156;28;20395;-72
2023/05/16 07:05:31;;;;;;;10.18;2.88;;;;;;;;;;4967160;28;20041;-72
2023/05/16 07:07:57;;;;;;;7.90;2.42;;;;;;;;;;4966590;28;20133;-72
2023/05/16 07:10:24;;;;;;;10.15;2.22;;;;;;;;;;4966823;28;20048;-71
2023/05/16 07:12:50;;;;;;;9.50;2.42;;;;;;;;;;4965604;28;20030;-72
2023/05/16 07:15:16;;;;;;;9.85;2.75;;;;;;;;;;4966819;28;20034;-71
2023/05/16 07:17:43;;;;;;;8.35;2.50;;;;;;;;;;4966099;28;20120;-74
2023/05/16 07:20:12;;;;;;;8.90;2.30;;;;;;;;;;4969662;28;20095;-71
2023/05/16 07:22:38;;;;;;;12.98;3.03;;;;;;;;;;4981765;28;20546;-73
2023/05/16 07:25:05;;;;;;;9.30;2.30;;;;;;;;;;5000093;28;20136;-72
2023/05/16 07:27:31;;;;;;;7.22;2.10;;;;;;;;;;5004251;28;20326;-72
2023/05/16 07:29:58;;;;;;;8.73;1.98;;;;;;;;;;5003457;28;20044;-72
2023/05/16 07:32:24;;;;;;;8.27;2.00;;;;;;;;;;5006313;28;20057;-72
2023/05/16 07:34:50;;;;;;;10.10;2.17;;;;;;;;;;4999716;28;20148;-72
2023/05/16 07:37:17;;;;;;;10.30;2.40;;;;;;;;;;5006246;28;20442;-72
2023/05/16 07:39:43;;;;;;;7.93;2.00;;;;;;;;;;5004828;28;20033;-71
2023/05/16 07:42:09;;;;;;;7.38;1.95;;;;;;;;;;5003193;28;20439;-72
2023/05/16 07:44:36;;;;;;;6.72;2.00;;;;;;;;;;5000850;28;20034;-71
2023/05/16 07:47:02;;;;;;;8.80;2.28;;;;;;;;;;5000454;28;20129;-71
2023/05/16 07:49:28;;;;;;;8.88;2.25;;;;;;;;;;5002808;28;20477;-71
2023/05/16 07:51:54;;;;;;;8.27;1.83;;;;;;;;;;5000504;28;20033;-72
2023/05/16 07:54:20;;;;;;;6.32;1.70;;;;;;;;;;5005888;28;20033;-72
2023/05/16 07:56:46;;;;;;;7.93;1.95;;;;;;;;;;4999415;28;20038;-71
2023/05/16 07:59:13;;;;;;;8.63;2.05;;;;;;;;;;5003915;28;20470;-72
2023/05/16 08:01:40;;;;;;;5.82;1.90;;;;;;;;;;5005265;28;20515;-72
2023/05/16 08:04:06;;;;;;;9.48;2.17;;;;;;;;;;5001377;28;20692;-72
2023/05/16 08:06:33;;;;;;;7.63;1.85;;;;;;;;;;5006210;28;20037;-72
2023/05/16 08:08:59;;;;;;;8.63;2.08;;;;;;;;;;5002374;28;20280;-71
2023/05/16 08:11:25;;;;;;;8.68;1.90;;;;;;;;;;5003685;28;20552;-72
2023/05/16 08:13:52;;;;;;;8.15;2.30;;;;;;;;;;5000287;28;20033;-72
2023/05/16 08:16:18;;;;;;;8.07;2.03;;;;;;;;;;5007157;28;20808;-72
2023/05/16 08:18:44;;;;;;;7.10;1.90;;;;;;;;;;5001743;28;20032;-71
2023/05/16 08:21:12;;;;;;;8.68;2.00;;;;;;;;;;5004516;28;20026;-72
2023/05/16 08:23:38;;;;;;;9.50;2.05;;;;;;;;;;5006806;28;20025;-72
2023/05/16 08:26:04;;;;;;;7.88;1.98;;;;;;;;;;5000269;28;20136;-74
2023/05/16 08:28:30;;;;;;;8.38;2.20;;;;;;;;;;5002964;28;20551;-72
2023/05/16 08:30:57;;;;;;;5.95;1.80;;;;;;;;;;5002627;28;20047;-72
2023/05/16 08:33:23;;;;;;;11.10;2.10;;;;;;;;;;5005230;28;20048;-72
2023/05/16 08:35:51;;;;;;;8.93;2.25;;;;;;;;;;5002101;28;20262;-72
2023/05/16 08:38:18;;;;;;;8.20;2.40;;;;;;;;;;5005141;28;20029;-72
2023/05/16 08:40:44;;;;;;;8.52;2.00;;;;;;;;;;5000700;28;20037;-72
2023/05/16 08:43:10;;;;;;;10.32;2.30;;;;;;;;;;5004012;28;20382;-72
2023/05/16 08:45:36;;;;;;;7.78;2.20;;;;;;;;;;5006263;28;20036;-72
2023/05/16 08:48:04;;;;;;;8.98;2.20;;;;;;;;;;5001380;28;20037;-72
2023/05/16 08:50:31;;;;;;;7.53;1.67;;;;;;;;;;5017734;28;20132;-72
2023/05/16 08:52:57;;;;;;;12.43;2.35;;;;;;;;;;5003017;28;20362;-72
2023/05/16 08:55:26;;;;;;;11.85;2.25;;;;;;;;;;5003525;28;20029;-71
2023/05/16 08:57:52;;;;;;;7.80;1.98;;;;;;;;;;5000951;28;20033;-71
2023/05/16 09:00:19;;;;;;;7.25;1.85;;;;;;;;;;5003696;28;20920;-73
2023/05/16 09:02:45;;;;;;;8.77;2.00;;;;;;;;;;5003444;28;20041;-72
2023/05/16 09:05:13;;;;;;;7.90;1.88;;;;;;;;;;5003504;28;20372;-72
2023/05/16 09:07:39;;;;;;;8.50;2.00;;;;;;;;;;5004052;28;20172;-72
2023/05/16 09:10:06;;;;;;;8.60;2.20;;;;;;;;;;5000148;28;20025;-72
2023/05/16 09:12:33;;;;;;;8.35;1.83;;;;;;;;;;5004357;28;20466;-72
2023/05/16 09:15:01;;;;;;;8.65;1.85;;;;;;;;;;5000268;28;20040;-72
2023/05/16 09:17:34;;;;;;;8.25;1.88;;;;;;;;;;5003775;28;20432;-72
2023/05/16 09:20:07;;;;;;;6.05;1.73;;;;;;;;;;5000412;28;20029;-72
2023/05/16 09:22:33;;;;;;;9.13;2.10;;;;;;;;;;5003067;28;20623;-72
2023/05/16 09:24:59;;;;;;;10.35;1.80;;;;;;;;;;4999394;28;20306;-72
2023/05/16 09:27:26;;;;;;;8.57;1.90;;;;;;;;;;5004286;28;20039;-72
2023/05/16 09:29:52;;;;;;;7.53;1.85;;;;;;;;;;5001129;28;20051;-71
2023/05/16 09:32:19;;;;;;;8.40;1.80;;;;;;;;;;5002872;28;20042;-72
2023/05/16 09:34:47;;;;;;;8.55;1.70;;;;;;;;;;5000147;28;20048;-73
2023/05/16 09:37:14;;;;;;;7.63;1.70;;;;;;;;;;5001229;28;20053;-72
2023/05/16 09:39:50;;;;;;;8.88;1.70;;;;;;;;;;5002468;28;20926;-73
2023/05/16 09:42:17;;;;;;;10.48;1.90;;;;;;;;;;5002074;28;20104;-73
2023/05/16 09:44:47;;;;;;;7.88;1.85;;;;;;;;;;5000366;28;20430;-73
2023/05/16 09:47:20;;;;;;;9.80;1.70;;;;;;;;;;5000732;28;20238;-73
2023/05/16 09:49:47;;;;;;;7.78;1.90;;;;;;;;;;5028226;28;20037;-73
2023/05/16 09:52:14;;;;;;;9.68;2.22;;;;;;;;;;4999973;28;20041;-73
2023/05/16 09:54:40;;;;;;;9.88;1.90;;;;;;;;;;5000956;28;20033;-73
2023/05/16 09:57:07;;;;;;;7.55;1.58;;;;;;;;;;5000814;28;20455;-72
2023/05/16 09:59:39;;;;;;;8.52;1.70;;;;;;;;;;5001663;28;20010;-73
2023/05/16 10:02:06;;;;;;;10.98;2.55;;;;;;;;;;4999122;28;20493;-72
2023/05/16 10:04:37;;;;;;;10.07;2.20;;;;;;;;;;5003229;28;20028;-73
2023/05/16 10:07:03;;;;;;;11.98;2.00;;;;;;;;;;4998948;28;24217;-73
2023/05/16 10:09:32;;;;;;;11.48;2.08;;;;;;;;;;5003856;28;20029;-73
2023/05/16 10:12:02;;;;;;;7.97;2.08;;;;;;;;;;4998553;28;20508;-73
2023/05/16 10:14:30;;;;;;;8.07;1.75;;;;;;;;;;5003934;28;20055;-73
2023/05/16 10:16:57;;;;;;;6.60;1.85;;;;;;;;;;4998141;28;20025;-72
2023/05/16 10:19:25;;;;;;;7.18;1.77;;;;;;;;;;5001607;28;20364;-72
2023/05/16 10:21:53;;;;;;;8.38;1.88;;;;;;;;;;4997820;28;20044;-72
2023/05/16 10:24:25;;;;;;;10.93;2.40;;;;;;;;;;5001458;28;20472;-72
2023/05/16 10:26:51;;;;;;;9.13;2.00;;;;;;;;;;4999743;28;20041;-72
2023/05/16 10:29:19;;;;;;;7.53;1.85;;;;;;;;;;5002131;28;20122;-72
2023/05/16 10:31:46;;;;;;;8.52;1.77;;;;;;;;;;4997113;28;20110;-72
2023/05/16 10:34:12;;;;;;;6.97;1.70;;;;;;;;;;4997055;28;20029;-72
2023/05/16 10:36:39;;;;;;;9.20;1.58;;;;;;;;;;4995062;28;20033;-72
2023/05/16 10:39:05;;;;;;;8.75;1.40;;;;;;;;;;5000333;28;20080;-72
2023/05/16 10:41:33;;;;;;;13.00;2.00;;;;;;;;;;5000623;28;20067;-71
2023/05/16 10:44:00;;;;;;;8.70;1.85;;;;;;;;;;5000421;28;20112;-71
2023/05/16 10:46:28;;;;;;;8.68;1.80;;;;;;;;;;5003538;28;20476;-71
2023/05/16 10:48:54;;;;;;;5.35;1.60;;;;;;;;;;4996692;28;20120;-73
2023/05/16 10:51:23;;;;;;;8.15;1.60;;;;;;;;;;5001336;28;20021;-73
2023/05/16 10:54:04;;;;;;;8.95;1.95;;;;;;;;;;5000785;28;20049;-74
2023/05/16 10:56:33;;;;;;;8.52;2.00;;;;;;;;;;5004985;28;20479;-72
2023/05/16 10:58:59;;;;;;;7.97;1.80;;;;;;;;;;5002264;28;20036;-72
2023/05/16 11:01:34;;;;;;;7.18;1.88;;;;;;;;;;5004492;28;20495;-72
2023/05/16 11:04:04;;;;;;;6.60;1.70;;;;;;;;;;5001967;28;20045;-72
2023/05/16 11:06:34;;;;;;;6.70;1.60;;;;;;;;;;5004080;28;20267;-72
2023/05/16 11:09:09;;;;;;;10.90;1.92;;;;;;;;;;5000691;28;20376;-71
2023/05/16 11:11:38;;;;;;;9.35;2.00;;;;;;;;;;5005158;28;20018;-72
2023/05/16 11:14:04;;;;;;;6.78;1.90;;;;;;;;;;5000635;28;20362;-72
2023/05/16 11:16:30;;;;;;;9.15;2.10;;;;;;;;;;5005679;28;20029;-72
2023/05/16 11:19:05;;;;;;;6.25;1.50;;;;;;;;;;5003301;28;20440;-72
2023/05/16 11:21:50;;;;;;;6.28;1.80;;;;;;;;;;5007221;28;20025;-70
2023/05/16 11:24:32;;;;;;;5.68;1.60;;;;;;;;;;5006949;28;20026;-72
2023/05/16 11:27:02;;;;;;;7.38;1.88;;;;;;;;;;5036676;28;20038;-72
2023/05/16 11:29:31;;;;;;;11.35;1.85;;;;;;;;;;5003326;28;20445;-72
2023/05/16 11:31:58;;;;;;;6.85;1.80;;;;;;;;;;5000399;28;20042;-71
2023/05/16 11:34:24;;;;;;;8.25;1.52;;;;;;;;;;5005118;28;20025;-72
2023/05/16 11:36:51;;;;;;;8.63;2.05;;;;;;;;;;5003335;28;20026;-72
2023/05/16 11:39:20;;;;;;;9.05;2.00;;;;;;;;;;5003657;28;20025;-71
2023/05/16 11:41:46;;;;;;;8.32;1.90;;;;;;;;;;5002968;28;20029;-72
2023/05/16 11:44:12;;;;;;;8.85;2.38;;;;;;;;;;5004308;28;20352;-71
2023/05/16 11:46:39;;;;;;;8.60;2.17;;;;;;;;;;5006803;28;20429;-72
2023/05/16 11:49:08;;;;;;;8.85;1.95;;;;;;;;;;5003401;28;20127;-72
2023/05/16 11:51:34;;;;;;;7.53;1.70;;;;;;;;;;5035199;28;20026;-72
2023/05/16 11:54:03;;;;;;;8.20;1.90;;;;;;;;;;5002775;28;20037;-72
2023/05/16 11:56:31;;;;;;;10.35;2.22;;;;;;;;;;5004191;28;20381;-71
2023/05/16 11:58:58;;;;;;;8.63;2.08;;;;;;;;;;5000619;28;20551;-71
2023/05/16 12:01:24;;;;;;;8.25;2.20;;;;;;;;;;5005655;28;20025;-70
2023/05/16 12:03:55;;;;;;;8.00;2.00;;;;;;;;;;5000962;28;20168;-71
2023/05/16 12:06:21;;;;;;;8.57;1.90;;;;;;;;;;5003774;28;20029;-70
2023/05/16 12:08:51;;;;;;;7.53;1.92;;;;;;;;;;5001199;28;20029;-71
2023/05/16 12:11:17;;;;;;;9.68;2.25;;;;;;;;;;5001912;28;20041;-71
2023/05/16 12:13:44;;;;;;;9.07;1.92;;;;;;;;;;5004162;28;20226;-71
2023/05/16 12:16:11;;;;;;;8.88;2.17;;;;;;;;;;5004117;28;20262;-71
2023/05/16 12:18:38;;;;;;;10.55;2.40;;;;;;;;;;5001053;28;20610;-71
2023/05/16 12:21:05;;;;;;;6.45;1.88;;;;;;;;;;4998829;28;20200;-71
2023/05/16 12:23:33;;;;;;;8.05;2.40;;;;;;;;;;5000530;28;20132;-71
2023/05/16 12:26:05;;;;;;;8.32;2.28;;;;;;;;;;5000492;28;20042;-72
2023/05/16 12:28:35;;;;;;;8.23;2.25;;;;;;;;;;5000643;28;20588;-71
2023/05/16 12:31:01;;;;;;;9.48;2.30;;;;;;;;;;4996917;28;20037;-71
2023/05/16 12:33:27;;;;;;;10.18;2.40;;;;;;;;;;5003505;28;20029;-71
2023/05/16 12:35:54;;;;;;;9.07;2.03;;;;;;;;;;4995526;28;20490;-72
2023/05/16 12:38:20;;;;;;;14.55;2.67;;;;;;;;;;5003719;28;20029;-72
2023/05/16 12:40:47;;;;;;;11.82;2.53;;;;;;;;;;4999224;28;20508;-71
2023/05/16 12:43:13;;;;;;;9.10;2.33;;;;;;;;;;5002307;28;20495;-71
2023/05/16 12:45:40;;;;;;;10.20;2.10;;;;;;;;;;4998684;28;20068;-73
2023/05/16 12:48:15;;;;;;;12.60;2.30;;;;;;;;;;4999079;28;20029;-70
2023/05/16 12:50:41;;;;;;;11.35;2.40;;;;;;;;;;4998574;28;20088;-73
2023/05/16 12:53:13;;;;;;;9.27;2.13;;;;;;;;;;4997839;28;20038;-73
2023/05/16 12:55:40;;;;;;;7.50;2.00;;;;;;;;;;4997740;28;20747;-71
2023/05/16 12:58:06;;;;;;;10.77;2.13;;;;;;;;;;4994859;28;20136;-70
2023/05/16 13:00:32;;;;;;;7.82;1.85;;;;;;;;;;5006714;28;20036;-71
2023/05/16 13:02:58;;;;;;;10.57;2.20;;;;;;;;;;4997339;28;20486;-71
2023/05/16 13:05:25;;;;;;;11.38;2.42;;;;;;;;;;4999731;28;20025;-71
2023/05/16 13:07:51;;;;;;;13.05;2.40;;;;;;;;;;4996758;28;20183;-71
2023/05/16 13:10:18;;;;;;;9.75;2.70;;;;;;;;;;4994634;28;20037;-71
2023/05/16 13:12:44;;;;;;;9.63;2.33;;;;;;;;;;4978374;28;20033;-71
2023/05/16 13:15:11;;;;;;;10.57;2.38;;;;;;;;;;4976670;28;20038;-71
2023/05/16 13:17:38;;;;;;;11.10;2.58;;;;;;;;;;4993164;28;20302;-71
2023/05/16 13:20:08;;;;;;;10.10;2.30;;;;;;;;;;4988565;28;20511;-71
2023/05/16 13:22:37;;;;;;;10.68;2.63;;;;;;;;;;4996815;28;20032;-71
2023/05/16 13:25:04;;;;;;;9.82;2.55;;;;;;;;;;4989136;28;21278;-71
2023/05/16 13:27:31;;;;;;;8.43;1.83;;;;;;;;;;4993626;28;20264;-71
2023/05/16 13:29:57;;;;;;;8.25;2.20;;;;;;;;;;4991579;28;20227;-72
2023/05/16 13:32:24;;;;;;;8.40;2.50;;;;;;;;;;4993152;28;20061;-72
2023/05/16 13:34:50;;;;;;;7.90;1.80;;;;;;;;;;4992280;28;20105;-71
2023/05/16 13:37:16;;;;;;;6.47;1.60;;;;;;;;;;4995006;28;20022;-71
2023/05/16 13:39:43;;;;;;;6.25;2.20;;;;;;;;;;4993366;28;20549;-71
2023/05/16 13:42:09;;;;;;;12.88;4.22;;;;;;;;;;4993322;28;20550;-71
2023/05/16 13:44:35;;;;;;;11.35;4.65;;;;;;;;;;5010203;28;20033;-71
2023/05/16 13:47:02;;;;;;;10.35;4.43;;;;;;;;;;4990842;28;20445;-71
2023/05/16 13:49:28;;;;;;;9.90;3.63;;;;;;;;;;4994089;28;20040;-72
2023/05/16 13:51:56;;;;;;;10.05;3.75;;;;;;;;;;4990820;28;20029;-72
2023/05/16 13:54:22;;;;;;;16.30;4.60;;;;;;;;;;4994292;28;20041;-72
2023/05/16 13:56:48;;;;;;;13.48;3.80;;;;;;;;;;4989020;28;20291;-71
2023/05/16 13:59:14;;;;;;;9.75;4.00;;;;;;;;;;4992997;28;20022;-71
2023/05/16 14:01:40;;;;;;;13.10;4.30;;;;;;;;;;4993904;28;20056;-71
2023/05/16 14:04:06;;;;;;;8.57;3.25;;;;;;;;;;4989596;28;20477;-71
2023/05/16 14:06:33;;;;;;;10.25;3.40;;;;;;;;;;4993535;28;20117;-73
2023/05/16 14:09:00;;;;;;;13.73;3.90;;;;;;;;;;4991138;28;20046;-71
2023/05/16 14:11:26;;;;;;;11.98;3.17;;;;;;;;;;4993339;28;20017;-72
2023/05/16 14:13:53;;;;;;;13.00;2.83;;;;;;;;;;4990235;28;20597;-73
2023/05/16 14:16:19;;;;;;;9.38;2.40;;;;;;;;;;4991920;28;20187;-73
2023/05/16 14:18:45;;;;;;;8.35;2.47;;;;;;;;;;4990044;28;20041;-73
2023/05/16 14:21:12;;;;;;;7.70;2.15;;;;;;;;;;4993965;28;20140;-72
2023/05/16 14:23:38;;;;;;;9.55;2.47;;;;;;;;;;4991533;28;20351;-72
2023/05/16 14:26:05;;;;;;;6.70;1.88;;;;;;;;;;4988203;28;20199;-72
2023/05/16 14:28:34;;;;;;;8.25;2.70;;;;;;;;;;4991010;28;20171;-73
2023/05/16 14:31:00;;;;;;;7.78;2.70;;;;;;;;;;4989087;28;20032;-73
2023/05/16 14:33:27;;;;;;;8.77;2.92;;;;;;;;;;4994122;28;20053;-72
2023/05/16 14:35:53;;;;;;;7.93;2.30;;;;;;;;;;4989030;28;20249;-71
2023/05/16 14:38:19;;;;;;;7.57;2.45;;;;;;;;;;4995038;28;20025;-71
2023/05/16 14:40:46;;;;;;;12.68;2.53;;;;;;;;;;4990147;28;20113;-71
2023/05/16 14:43:12;;;;;;;8.98;2.95;;;;;;;;;;4990198;28;20742;-71
2023/05/16 14:45:38;;;;;;;8.93;2.65;;;;;;;;;;4994186;28;20400;-71